Mullan, ID

9:10 PM PST on February 12, 2016 (GMT -0800)
Mullan Pass | | Change Station
CLOSE
Current Station
Airport
Location: Mullan Pass,
Elevation: 6073 ft
Nearby Weather Stations

Elev 6073 ft 47.45 °N, 115.67 °W | Updated 2 minutes ago

Overcast
Overcast
35 °F
Feels Like 29 °F
N
8
Wind Variable Wind from SSW

Today
High -- | Low -- °F
--% Chance of Precip.
Yesterday
High -- | Low -- °F
Precip. -- in
Pressure 30.03 in
Visibility 10.0 miles
Clouds Mostly Cloudy 1100 ft
Mostly Cloudy 2300 ft
Overcast 4500 ft
Windchill 29 °F
Dew Point 32 °F
Humidity 89%
Rainfall 0.16 in
Snow Depth Not available.
6:53 AM 5:01 PM
Waxing Crescent, 27% visible
SPECI KMLP 130508Z AUTO 21007KT 10SM -RA BKN011 BKN023 OVC045 02/00 A3003 RMK AO2 RAB06 P0000 T00170000 $
Pressure 30.03 in
Visibility 10.0 miles
Clouds Mostly Cloudy 1100 ft
Mostly Cloudy 2300 ft
Overcast 4500 ft
Windchill 29 °F
Dew Point 32 °F
Humidity 89%
Rainfall 0.16 in
Snow Depth Not available.
6:53 AM 5:01 PM
Waxing Crescent, 27% visible
SPECI KMLP 130508Z AUTO 21007KT 10SM -RA BKN011 BKN023 OVC045 02/00 A3003 RMK AO2 RAB06 P0000 T00170000 $

10-Day Weather Forecast

Almanac

Astronomy

Feb. 12, 2016 Rise Set
Actual Time
Civil Twilight
Nautical Twilight
Astronomical Twilight
Moon
Length of Visible Light
Length of Day
Tomorrow will be .
, % of the Moon is Illuminated

Today's Extremes

State Highs State Lows

Community

WunderPhotos

Upload Photos

1,892,501 photos uploaded!

WunderBlog® & News

Nearby

Air Quality

  Air Quality AQ Index Pollutant
Not available.

Snow Depth

Station Depth Elevation

Earthquake Activity

City Distance Mag. Time & Date
Minimum magnitude displayed is 2.5.

Coastal Water Temperatures

Place Temperature

Stations

Nearby Weather Stations

Station Location Temp. Windchill Dew Point Humidity Wind Precip. Elev Updated Type
                   

Watches & Warnings

There are currently no watches in effect.